sensor_id;sensor_type;location;lat;lon;timestamp;temperature;humidity
2783;DHT22;1399;47.072;15.452;2023-12-14T00:00:48;11.10;61.80
2783;DHT22;1399;47.072;15.452;2023-12-14T00:03:14;11.10;61.90
2783;DHT22;1399;47.072;15.452;2023-12-14T00:05:39;11.10;61.80
2783;DHT22;1399;47.072;15.452;2023-12-14T00:08:05;11.10;61.80
2783;DHT22;1399;47.072;15.452;2023-12-14T00:10:31;11.10;61.80
2783;DHT22;1399;47.072;15.452;2023-12-14T00:12:57;11.10;62.00
2783;DHT22;1399;47.072;15.452;2023-12-14T00:15:23;11.10;61.90
2783;DHT22;1399;47.072;15.452;2023-12-14T00:17:48;11.10;62.00
2783;DHT22;1399;47.072;15.452;2023-12-14T00:20:14;11.10;62.00
2783;DHT22;1399;47.072;15.452;2023-12-14T00:22:40;11.10;62.00
2783;DHT22;1399;47.072;15.452;2023-12-14T00:25:06;11.10;62.00
2783;DHT22;1399;47.072;15.452;2023-12-14T00:27:31;11.20;62.20
2783;DHT22;1399;47.072;15.452;2023-12-14T00:29:57;11.10;62.00
2783;DHT22;1399;47.072;15.452;2023-12-14T00:32:23;11.10;62.00
2783;DHT22;1399;47.072;15.452;2023-12-14T00:34:48;11.10;62.10
2783;DHT22;1399;47.072;15.452;2023-12-14T00:37:14;11.10;62.00
2783;DHT22;1399;47.072;15.452;2023-12-14T00:39:40;11.20;62.20
2783;DHT22;1399;47.072;15.452;2023-12-14T00:42:06;11.20;62.20
2783;DHT22;1399;47.072;15.452;2023-12-14T00:44:31;11.10;62.00
2783;DHT22;1399;47.072;15.452;2023-12-14T00:46:57;11.20;62.10
2783;DHT22;1399;47.072;15.452;2023-12-14T00:49:24;11.20;62.10
2783;DHT22;1399;47.072;15.452;2023-12-14T00:51:50;11.10;62.00
2783;DHT22;1399;47.072;15.452;2023-12-14T00:54:15;11.10;62.00
2783;DHT22;1399;47.072;15.452;2023-12-14T00:56:41;11.10;62.00
2783;DHT22;1399;47.072;15.452;2023-12-14T00:59:07;11.20;62.10
2783;DHT22;1399;47.072;15.452;2023-12-14T01:01:33;11.10;62.00
2783;DHT22;1399;47.072;15.452;2023-12-14T01:03:58;11.10;62.00
2783;DHT22;1399;47.072;15.452;2023-12-14T01:06:25;11.20;62.00
2783;DHT22;1399;47.072;15.452;2023-12-14T01:08:51;11.20;62.00
2783;DHT22;1399;47.072;15.452;2023-12-14T01:11:17;11.20;62.00
2783;DHT22;1399;47.072;15.452;2023-12-14T01:13:42;11.20;62.00
2783;DHT22;1399;47.072;15.452;2023-12-14T01:16:08;11.10;61.90
2783;DHT22;1399;47.072;15.452;2023-12-14T01:18:34;11.10;61.90
2783;DHT22;1399;47.072;15.452;2023-12-14T01:21:00;11.10;61.80
2783;DHT22;1399;47.072;15.452;2023-12-14T01:23:25;11.10;61.90
2783;DHT22;1399;47.072;15.452;2023-12-14T01:25:51;11.10;61.90
2783;DHT22;1399;47.072;15.452;2023-12-14T01:28:17;11.10;61.90
2783;DHT22;1399;47.072;15.452;2023-12-14T01:30:43;11.10;62.00
2783;DHT22;1399;47.072;15.452;2023-12-14T01:33:08;11.10;62.00
2783;DHT22;1399;47.072;15.452;2023-12-14T01:35:34;11.10;62.00
2783;DHT22;1399;47.072;15.452;2023-12-14T01:38:00;11.10;62.10
2783;DHT22;1399;47.072;15.452;2023-12-14T01:40:25;11.10;62.10
2783;DHT22;1399;47.072;15.452;2023-12-14T01:42:51;11.10;62.10
2783;DHT22;1399;47.072;15.452;2023-12-14T01:45:17;11.10;62.10
2783;DHT22;1399;47.072;15.452;2023-12-14T01:47:43;11.10;62.10
2783;DHT22;1399;47.072;15.452;2023-12-14T01:50:09;11.10;62.20
2783;DHT22;1399;47.072;15.452;2023-12-14T01:52:35;11.10;62.20
2783;DHT22;1399;47.072;15.452;2023-12-14T01:55:01;11.10;62.10
2783;DHT22;1399;47.072;15.452;2023-12-14T01:57:28;11.10;62.10
2783;DHT22;1399;47.072;15.452;2023-12-14T01:59:54;11.10;62.10
2783;DHT22;1399;47.072;15.452;2023-12-14T02:02:20;11.10;62.10
2783;DHT22;1399;47.072;15.452;2023-12-14T02:04:46;11.10;62.20
2783;DHT22;1399;47.072;15.452;2023-12-14T02:07:11;11.10;62.20
2783;DHT22;1399;47.072;15.452;2023-12-14T02:09:37;11.10;62.20
2783;DHT22;1399;47.072;15.452;2023-12-14T02:12:05;11.10;62.30
2783;DHT22;1399;47.072;15.452;2023-12-14T02:14:30;11.10;62.30
2783;DHT22;1399;47.072;15.452;2023-12-14T02:16:56;11.10;62.40
2783;DHT22;1399;47.072;15.452;2023-12-14T02:19:22;11.10;62.40
2783;DHT22;1399;47.072;15.452;2023-12-14T02:21:47;11.10;62.40
2783;DHT22;1399;47.072;15.452;2023-12-14T02:24:13;11.10;62.50
2783;DHT22;1399;47.072;15.452;2023-12-14T02:26:39;11.10;62.50
2783;DHT22;1399;47.072;15.452;2023-12-14T02:29:05;11.10;62.50
2783;DHT22;1399;47.072;15.452;2023-12-14T02:31:30;11.10;62.60
2783;DHT22;1399;47.072;15.452;2023-12-14T02:33:56;11.10;62.60
2783;DHT22;1399;47.072;15.452;2023-12-14T02:36:22;11.10;62.70
2783;DHT22;1399;47.072;15.452;2023-12-14T02:38:48;11.10;62.70
2783;DHT22;1399;47.072;15.452;2023-12-14T02:41:13;11.10;62.70
2783;DHT22;1399;47.072;15.452;2023-12-14T02:43:39;11.10;62.80
2783;DHT22;1399;47.072;15.452;2023-12-14T02:46:06;11.10;62.80
2783;DHT22;1399;47.072;15.452;2023-12-14T02:48:32;11.10;62.90
2783;DHT22;1399;47.072;15.452;2023-12-14T02:50:57;11.10;62.80
2783;DHT22;1399;47.072;15.452;2023-12-14T02:53:25;11.10;62.90
2783;DHT22;1399;47.072;15.452;2023-12-14T02:55:51;11.10;62.80
2783;DHT22;1399;47.072;15.452;2023-12-14T02:58:18;11.20;63.00
2783;DHT22;1399;47.072;15.452;2023-12-14T03:00:44;11.10;62.90
2783;DHT22;1399;47.072;15.452;2023-12-14T03:03:10;11.10;62.90
2783;DHT22;1399;47.072;15.452;2023-12-14T03:05:36;11.10;62.90
2783;DHT22;1399;47.072;15.452;2023-12-14T03:08:02;11.20;63.00
2783;DHT22;1399;47.072;15.452;2023-12-14T03:10:27;11.20;63.00
2783;DHT22;1399;47.072;15.452;2023-12-14T03:12:53;11.20;63.10
2783;DHT22;1399;47.072;15.452;2023-12-14T03:15:19;11.20;63.10
2783;DHT22;1399;47.072;15.452;2023-12-14T03:17:44;11.20;63.10
2783;DHT22;1399;47.072;15.452;2023-12-14T03:20:11;11.20;63.10
2783;DHT22;1399;47.072;15.452;2023-12-14T03:22:37;11.20;63.10
2783;DHT22;1399;47.072;15.452;2023-12-14T03:25:04;11.20;63.20
2783;DHT22;1399;47.072;15.452;2023-12-14T03:27:29;11.20;63.20
2783;DHT22;1399;47.072;15.452;2023-12-14T03:29:55;11.20;63.70
2783;DHT22;1399;47.072;15.452;2023-12-14T03:32:21;11.20;63.20
2783;DHT22;1399;47.072;15.452;2023-12-14T03:34:47;11.20;63.30
2783;DHT22;1399;47.072;15.452;2023-12-14T03:37:13;11.20;63.30
2783;DHT22;1399;47.072;15.452;2023-12-14T03:39:38;11.20;63.30
2783;DHT22;1399;47.072;15.452;2023-12-14T03:42:04;11.20;63.30
2783;DHT22;1399;47.072;15.452;2023-12-14T03:44:30;11.20;63.30
2783;DHT22;1399;47.072;15.452;2023-12-14T03:46:56;11.20;63.30
2783;DHT22;1399;47.072;15.452;2023-12-14T03:49:23;11.20;63.30
2783;DHT22;1399;47.072;15.452;2023-12-14T03:51:49;11.20;63.20
2783;DHT22;1399;47.072;15.452;2023-12-14T03:54:15;11.20;63.20
2783;DHT22;1399;47.072;15.452;2023-12-14T03:56:41;11.20;63.20
2783;DHT22;1399;47.072;15.452;2023-12-14T03:59:06;11.20;63.20
2783;DHT22;1399;47.072;15.452;2023-12-14T04:01:33;11.20;63.30
2783;DHT22;1399;47.072;15.452;2023-12-14T04:03:59;11.20;63.30
2783;DHT22;1399;47.072;15.452;2023-12-14T04:06:24;11.20;63.30
2783;DHT22;1399;47.072;15.452;2023-12-14T04:08:50;11.30;63.40
2783;DHT22;1399;47.072;15.452;2023-12-14T04:11:16;11.20;63.30
2783;DHT22;1399;47.072;15.452;2023-12-14T04:13:42;11.20;63.30
2783;DHT22;1399;47.072;15.452;2023-12-14T04:16:08;11.20;63.30
2783;DHT22;1399;47.072;15.452;2023-12-14T04:18:35;11.30;63.40
2783;DHT22;1399;47.072;15.452;2023-12-14T04:21:00;11.30;63.40
2783;DHT22;1399;47.072;15.452;2023-12-14T04:23:26;11.30;63.30
2783;DHT22;1399;47.072;15.452;2023-12-14T04:25:52;11.30;63.30
2783;DHT22;1399;47.072;15.452;2023-12-14T04:28:18;11.30;63.30
2783;DHT22;1399;47.072;15.452;2023-12-14T04:30:44;11.30;63.30
2783;DHT22;1399;47.072;15.452;2023-12-14T04:33:10;11.30;63.40
2783;DHT22;1399;47.072;15.452;2023-12-14T04:35:35;11.30;63.30
2783;DHT22;1399;47.072;15.452;2023-12-14T04:38:02;11.30;63.30
2783;DHT22;1399;47.072;15.452;2023-12-14T04:40:28;11.30;63.30
2783;DHT22;1399;47.072;15.452;2023-12-14T04:42:54;11.30;63.30
2783;DHT22;1399;47.072;15.452;2023-12-14T04:45:20;11.30;63.20
2783;DHT22;1399;47.072;15.452;2023-12-14T04:47:45;11.30;63.20
2783;DHT22;1399;47.072;15.452;2023-12-14T04:50:11;11.30;63.20
2783;DHT22;1399;47.072;15.452;2023-12-14T04:52:37;11.30;63.30
2783;DHT22;1399;47.072;15.452;2023-12-14T04:55:03;11.30;63.30
2783;DHT22;1399;47.072;15.452;2023-12-14T04:57:29;11.30;63.30
2783;DHT22;1399;47.072;15.452;2023-12-14T04:59:55;11.30;63.30
2783;DHT22;1399;47.072;15.452;2023-12-14T05:02:20;11.30;63.30
2783;DHT22;1399;47.072;15.452;2023-12-14T05:04:46;11.30;63.20
2783;DHT22;1399;47.072;15.452;2023-12-14T05:07:11;11.30;63.20
2783;DHT22;1399;47.072;15.452;2023-12-14T05:09:37;11.30;63.10
2783;DHT22;1399;47.072;15.452;2023-12-14T05:12:03;11.30;63.10
2783;DHT22;1399;47.072;15.452;2023-12-14T05:14:29;11.30;63.00
2783;DHT22;1399;47.072;15.452;2023-12-14T05:16:55;11.30;63.00
2783;DHT22;1399;47.072;15.452;2023-12-14T05:19:20;11.30;63.00
2783;DHT22;1399;47.072;15.452;2023-12-14T05:21:46;11.30;63.00
2783;DHT22;1399;47.072;15.452;2023-12-14T05:24:12;11.30;63.10
2783;DHT22;1399;47.072;15.452;2023-12-14T05:26:38;11.30;63.00
2783;DHT22;1399;47.072;15.452;2023-12-14T05:29:04;11.30;63.00
2783;DHT22;1399;47.072;15.452;2023-12-14T05:31:29;11.30;63.20
2783;DHT22;1399;47.072;15.452;2023-12-14T05:33:55;11.20;62.90
2783;DHT22;1399;47.072;15.452;2023-12-14T05:36:20;11.20;62.90
2783;DHT22;1399;47.072;15.452;2023-12-14T05:38:46;11.30;63.00
2783;DHT22;1399;47.072;15.452;2023-12-14T05:41:12;11.30;63.00
2783;DHT22;1399;47.072;15.452;2023-12-14T05:43:38;11.30;63.00
2783;DHT22;1399;47.072;15.452;2023-12-14T05:46:04;11.20;62.90
2783;DHT22;1399;47.072;15.452;2023-12-14T05:48:30;11.20;62.90
2783;DHT22;1399;47.072;15.452;2023-12-14T05:50:56;11.30;63.00
2783;DHT22;1399;47.072;15.452;2023-12-14T05:53:22;11.20;62.90
2783;DHT22;1399;47.072;15.452;2023-12-14T05:55:48;11.20;63.00
2783;DHT22;1399;47.072;15.452;2023-12-14T05:58:13;11.30;63.10
2783;DHT22;1399;47.072;15.452;2023-12-14T06:00:40;11.20;63.00
2783;DHT22;1399;47.072;15.452;2023-12-14T06:03:06;11.20;63.00
2783;DHT22;1399;47.072;15.452;2023-12-14T06:05:31;11.20;63.00
2783;DHT22;1399;47.072;15.452;2023-12-14T06:07:57;11.20;63.10
2783;DHT22;1399;47.072;15.452;2023-12-14T06:10:23;11.20;63.90
2783;DHT22;1399;47.072;15.452;2023-12-14T06:12:48;11.30;63.10
2783;DHT22;1399;47.072;15.452;2023-12-14T06:15:14;11.20;63.10
2783;DHT22;1399;47.072;15.452;2023-12-14T06:17:40;11.20;63.00
2783;DHT22;1399;47.072;15.452;2023-12-14T06:20:08;11.20;63.10
2783;DHT22;1399;47.072;15.452;2023-12-14T06:22:36;11.20;63.10
2783;DHT22;1399;47.072;15.452;2023-12-14T06:25:01;11.20;63.10
2783;DHT22;1399;47.072;15.452;2023-12-14T06:27:29;11.20;63.10
2783;DHT22;1399;47.072;15.452;2023-12-14T06:29:54;11.20;63.20
2783;DHT22;1399;47.072;15.452;2023-12-14T06:32:20;11.20;63.10
2783;DHT22;1399;47.072;15.452;2023-12-14T06:34:46;11.20;63.20
2783;DHT22;1399;47.072;15.452;2023-12-14T06:37:12;11.20;63.20
2783;DHT22;1399;47.072;15.452;2023-12-14T06:39:37;11.20;63.20
2783;DHT22;1399;47.072;15.452;2023-12-14T06:42:03;11.20;63.20
2783;DHT22;1399;47.072;15.452;2023-12-14T06:44:29;11.20;63.20
2783;DHT22;1399;47.072;15.452;2023-12-14T06:46:56;11.20;63.20
2783;DHT22;1399;47.072;15.452;2023-12-14T06:49:24;11.20;63.20
2783;DHT22;1399;47.072;15.452;2023-12-14T06:51:50;11.20;63.20
2783;DHT22;1399;47.072;15.452;2023-12-14T06:54:16;11.20;63.20
2783;DHT22;1399;47.072;15.452;2023-12-14T06:56:41;11.20;63.30
2783;DHT22;1399;47.072;15.452;2023-12-14T06:59:07;11.20;63.30
2783;DHT22;1399;47.072;15.452;2023-12-14T07:01:33;11.20;63.30
2783;DHT22;1399;47.072;15.452;2023-12-14T07:03:59;11.20;63.30
2783;DHT22;1399;47.072;15.452;2023-12-14T07:06:24;11.20;63.30
2783;DHT22;1399;47.072;15.452;2023-12-14T07:08:50;11.20;63.30
2783;DHT22;1399;47.072;15.452;2023-12-14T07:11:16;11.20;63.30
2783;DHT22;1399;47.072;15.452;2023-12-14T07:13:42;11.20;63.30
2783;DHT22;1399;47.072;15.452;2023-12-14T07:16:10;11.20;63.30
2783;DHT22;1399;47.072;15.452;2023-12-14T07:18:36;11.20;63.30
2783;DHT22;1399;47.072;15.452;2023-12-14T07:21:03;11.20;63.30
2783;DHT22;1399;47.072;15.452;2023-12-14T07:23:29;11.30;63.50
2783;DHT22;1399;47.072;15.452;2023-12-14T07:25:54;11.30;63.50
2783;DHT22;1399;47.072;15.452;2023-12-14T07:28:21;11.30;63.50
2783;DHT22;1399;47.072;15.452;2023-12-14T07:30:47;11.30;63.50
2783;DHT22;1399;47.072;15.452;2023-12-14T07:33:13;11.30;63.50
2783;DHT22;1399;47.072;15.452;2023-12-14T07:35:39;11.30;63.50
2783;DHT22;1399;47.072;15.452;2023-12-14T07:38:05;11.30;63.50
2783;DHT22;1399;47.072;15.452;2023-12-14T07:40:30;11.30;63.50
2783;DHT22;1399;47.072;15.452;2023-12-14T07:42:56;11.30;63.60
2783;DHT22;1399;47.072;15.452;2023-12-14T07:45:22;11.30;63.60
2783;DHT22;1399;47.072;15.452;2023-12-14T07:47:47;11.30;64.50
2783;DHT22;1399;47.072;15.452;2023-12-14T07:50:13;11.30;63.60
2783;DHT22;1399;47.072;15.452;2023-12-14T07:52:39;11.30;63.50
2783;DHT22;1399;47.072;15.452;2023-12-14T07:55:06;11.40;63.70
2783;DHT22;1399;47.072;15.452;2023-12-14T07:57:32;11.40;63.70
2783;DHT22;1399;47.072;15.452;2023-12-14T07:59:58;11.40;63.70
2783;DHT22;1399;47.072;15.452;2023-12-14T08:02:23;11.40;63.70
2783;DHT22;1399;47.072;15.452;2023-12-14T08:04:49;11.40;63.60
2783;DHT22;1399;47.072;15.452;2023-12-14T08:07:15;11.40;63.70
2783;DHT22;1399;47.072;15.452;2023-12-14T08:09:41;11.50;63.80
2783;DHT22;1399;47.072;15.452;2023-12-14T08:12:06;11.50;63.80
2783;DHT22;1399;47.072;15.452;2023-12-14T08:14:33;11.50;63.80
2783;DHT22;1399;47.072;15.452;2023-12-14T08:17:04;11.50;63.80
2783;DHT22;1399;47.072;15.452;2023-12-14T08:19:30;11.50;63.80
2783;DHT22;1399;47.072;15.452;2023-12-14T08:21:56;11.50;63.90
2783;DHT22;1399;47.072;15.452;2023-12-14T08:24:21;11.50;63.90
2783;DHT22;1399;47.072;15.452;2023-12-14T08:26:47;11.60;63.90
2783;DHT22;1399;47.072;15.452;2023-12-14T08:29:13;11.60;63.90
2783;DHT22;1399;47.072;15.452;2023-12-14T08:31:39;11.60;63.90
2783;DHT22;1399;47.072;15.452;2023-12-14T08:34:04;11.60;63.80
2783;DHT22;1399;47.072;15.452;2023-12-14T08:36:30;11.70;63.80
2783;DHT22;1399;47.072;15.452;2023-12-14T08:38:57;11.70;63.70
2783;DHT22;1399;47.072;15.452;2023-12-14T08:41:23;11.80;63.80
2783;DHT22;1399;47.072;15.452;2023-12-14T08:43:48;11.80;63.80
2783;DHT22;1399;47.072;15.452;2023-12-14T08:46:14;11.80;63.60
2783;DHT22;1399;47.072;15.452;2023-12-14T08:48:40;11.80;63.60
2783;DHT22;1399;47.072;15.452;2023-12-14T08:51:05;11.90;63.60
2783;DHT22;1399;47.072;15.452;2023-12-14T08:53:31;11.90;63.60
2783;DHT22;1399;47.072;15.452;2023-12-14T08:55:57;11.90;63.50
2783;DHT22;1399;47.072;15.452;2023-12-14T08:58:23;11.90;63.50
2783;DHT22;1399;47.072;15.452;2023-12-14T09:00:49;12.00;63.70
2783;DHT22;1399;47.072;15.452;2023-12-14T09:03:21;12.00;64.50
2783;DHT22;1399;47.072;15.452;2023-12-14T09:05:47;12.00;63.60
2783;DHT22;1399;47.072;15.452;2023-12-14T09:08:13;12.00;63.50
2783;DHT22;1399;47.072;15.452;2023-12-14T09:10:39;12.00;63.50
2783;DHT22;1399;47.072;15.452;2023-12-14T09:13:05;12.10;63.50
2783;DHT22;1399;47.072;15.452;2023-12-14T09:15:32;12.10;63.40
2783;DHT22;1399;47.072;15.452;2023-12-14T09:17:58;12.10;63.50
2783;DHT22;1399;47.072;15.452;2023-12-14T09:20:23;12.10;63.50
2783;DHT22;1399;47.072;15.452;2023-12-14T09:22:49;12.10;63.50
2783;DHT22;1399;47.072;15.452;2023-12-14T09:25:15;12.10;63.50
2783;DHT22;1399;47.072;15.452;2023-12-14T09:27:41;12.20;63.60
2783;DHT22;1399;47.072;15.452;2023-12-14T09:30:08;12.20;63.60
2783;DHT22;1399;47.072;15.452;2023-12-14T09:32:34;12.20;63.60
2783;DHT22;1399;47.072;15.452;2023-12-14T09:35:00;12.20;63.50
2783;DHT22;1399;47.072;15.452;2023-12-14T09:37:26;12.20;63.50
2783;DHT22;1399;47.072;15.452;2023-12-14T09:39:51;12.30;63.60
2783;DHT22;1399;47.072;15.452;2023-12-14T09:42:19;12.30;63.50
2783;DHT22;1399;47.072;15.452;2023-12-14T09:44:48;12.30;63.50
2783;DHT22;1399;47.072;15.452;2023-12-14T09:47:14;12.30;63.50
2783;DHT22;1399;47.072;15.452;2023-12-14T09:49:41;12.30;63.40
2783;DHT22;1399;47.072;15.452;2023-12-14T09:52:09;12.40;63.50
2783;DHT22;1399;47.072;15.452;2023-12-14T09:54:34;12.40;63.40
2783;DHT22;1399;47.072;15.452;2023-12-14T09:57:00;12.40;64.30
2783;DHT22;1399;47.072;15.452;2023-12-14T09:59:26;12.40;63.30
2783;DHT22;1399;47.072;15.452;2023-12-14T10:01:52;12.50;63.40
2783;DHT22;1399;47.072;15.452;2023-12-14T10:04:19;12.50;63.40
2783;DHT22;1399;47.072;15.452;2023-12-14T10:06:47;12.50;63.30
2783;DHT22;1399;47.072;15.452;2023-12-14T10:09:13;12.50;63.30
2783;DHT22;1399;47.072;15.452;2023-12-14T10:11:41;12.50;63.20
2783;DHT22;1399;47.072;15.452;2023-12-14T10:14:24;12.60;63.40
2783;DHT22;1399;47.072;15.452;2023-12-14T10:16:51;12.50;63.20
2783;DHT22;1399;47.072;15.452;2023-12-14T10:19:18;12.60;63.40
2783;DHT22;1399;47.072;15.452;2023-12-14T10:21:43;12.60;63.30
2783;DHT22;1399;47.072;15.452;2023-12-14T10:24:12;12.60;63.30
2783;DHT22;1399;47.072;15.452;2023-12-14T10:26:37;12.60;63.40
2783;DHT22;1399;47.072;15.452;2023-12-14T10:29:03;12.70;63.50
2783;DHT22;1399;47.072;15.452;2023-12-14T10:31:31;12.60;63.40
2783;DHT22;1399;47.072;15.452;2023-12-14T10:33:57;12.70;63.40
2783;DHT22;1399;47.072;15.452;2023-12-14T10:36:25;12.70;63.40
2783;DHT22;1399;47.072;15.452;2023-12-14T10:38:56;12.70;63.30
2783;DHT22;1399;47.072;15.452;2023-12-14T10:41:23;12.70;63.30
2783;DHT22;1399;47.072;15.452;2023-12-14T10:43:50;12.70;63.20
2783;DHT22;1399;47.072;15.452;2023-12-14T10:46:16;12.80;63.30
2783;DHT22;1399;47.072;15.452;2023-12-14T10:48:44;12.80;63.30
2783;DHT22;1399;47.072;15.452;2023-12-14T10:51:11;12.80;63.20
2783;DHT22;1399;47.072;15.452;2023-12-14T10:53:38;12.80;63.20
2783;DHT22;1399;47.072;15.452;2023-12-14T10:56:06;12.80;63.00
2783;DHT22;1399;47.072;15.452;2023-12-14T10:58:55;12.90;62.90
2783;DHT22;1399;47.072;15.452;2023-12-14T11:01:23;12.90;62.80
2783;DHT22;1399;47.072;15.452;2023-12-14T11:03:56;12.90;62.80
2783;DHT22;1399;47.072;15.452;2023-12-14T11:06:26;12.90;62.70
2783;DHT22;1399;47.072;15.452;2023-12-14T11:08:57;13.00;62.80
2783;DHT22;1399;47.072;15.452;2023-12-14T11:11:28;13.00;62.70
2783;DHT22;1399;47.072;15.452;2023-12-14T11:13:54;13.00;62.70
2783;DHT22;1399;47.072;15.452;2023-12-14T11:16:27;13.00;62.60
2783;DHT22;1399;47.072;15.452;2023-12-14T11:24:22;13.10;62.60
2783;DHT22;1399;47.072;15.452;2023-12-14T11:26:51;13.10;62.70
2783;DHT22;1399;47.072;15.452;2023-12-14T11:29:20;13.20;62.70
2783;DHT22;1399;47.072;15.452;2023-12-14T11:31:47;13.20;62.60
2783;DHT22;1399;47.072;15.452;2023-12-14T11:34:15;13.20;62.60
2783;DHT22;1399;47.072;15.452;2023-12-14T11:36:41;13.20;62.60
2783;DHT22;1399;47.072;15.452;2023-12-14T11:39:10;13.20;62.60
2783;DHT22;1399;47.072;15.452;2023-12-14T11:41:36;13.20;62.60
2783;DHT22;1399;47.072;15.452;2023-12-14T11:44:04;13.30;62.70
2783;DHT22;1399;47.072;15.452;2023-12-14T11:46:30;13.30;62.70
2783;DHT22;1399;47.072;15.452;2023-12-14T11:48:57;13.30;63.50
2783;DHT22;1399;47.072;15.452;2023-12-14T11:51:23;13.30;62.50
2783;DHT22;1399;47.072;15.452;2023-12-14T11:53:49;13.30;62.40
2783;DHT22;1399;47.072;15.452;2023-12-14T11:56:17;13.30;62.40
2783;DHT22;1399;47.072;15.452;2023-12-14T11:58:44;13.30;62.30
2783;DHT22;1399;47.072;15.452;2023-12-14T12:01:17;13.30;62.30
2783;DHT22;1399;47.072;15.452;2023-12-14T12:03:44;13.30;62.20
2783;DHT22;1399;47.072;15.452;2023-12-14T12:06:27;13.30;62.20
2783;DHT22;1399;47.072;15.452;2023-12-14T12:08:56;13.30;62.00
2783;DHT22;1399;47.072;15.452;2023-12-14T12:11:23;13.30;61.90
2783;DHT22;1399;47.072;15.452;2023-12-14T12:13:54;13.30;61.70
2783;DHT22;1399;47.072;15.452;2023-12-14T12:16:20;13.30;61.60
2783;DHT22;1399;47.072;15.452;2023-12-14T12:18:46;13.30;61.50
2783;DHT22;1399;47.072;15.452;2023-12-14T12:21:12;13.30;61.50
2783;DHT22;1399;47.072;15.452;2023-12-14T12:23:38;13.40;61.50
2783;DHT22;1399;47.072;15.452;2023-12-14T12:26:04;13.40;61.40
2783;DHT22;1399;47.072;15.452;2023-12-14T12:28:31;13.40;61.30
2783;DHT22;1399;47.072;15.452;2023-12-14T12:30:57;13.40;62.00
2783;DHT22;1399;47.072;15.452;2023-12-14T12:33:23;13.40;60.80
2783;DHT22;1399;47.072;15.452;2023-12-14T12:35:48;13.40;60.60
2783;DHT22;1399;47.072;15.452;2023-12-14T12:38:14;13.40;60.40
2783;DHT22;1399;47.072;15.452;2023-12-14T12:40:42;13.40;60.10
2783;DHT22;1399;47.072;15.452;2023-12-14T12:43:07;13.40;60.00
2783;DHT22;1399;47.072;15.452;2023-12-14T12:45:33;13.40;59.90
2783;DHT22;1399;47.072;15.452;2023-12-14T12:48:00;13.40;59.80
2783;DHT22;1399;47.072;15.452;2023-12-14T12:50:28;13.50;59.70
2783;DHT22;1399;47.072;15.452;2023-12-14T12:52:54;13.50;59.50
2783;DHT22;1399;47.072;15.452;2023-12-14T12:55:19;13.50;59.40
2783;DHT22;1399;47.072;15.452;2023-12-14T12:57:45;13.50;59.30
2783;DHT22;1399;47.072;15.452;2023-12-14T13:00:12;13.50;59.10
2783;DHT22;1399;47.072;15.452;2023-12-14T13:02:42;13.50;59.10
2783;DHT22;1399;47.072;15.452;2023-12-14T13:05:09;13.50;59.00
2783;DHT22;1399;47.072;15.452;2023-12-14T13:07:35;13.50;58.80
2783;DHT22;1399;47.072;15.452;2023-12-14T13:10:05;13.50;58.70
2783;DHT22;1399;47.072;15.452;2023-12-14T13:12:32;13.50;58.60
2783;DHT22;1399;47.072;15.452;2023-12-14T13:14:59;13.50;58.40
2783;DHT22;1399;47.072;15.452;2023-12-14T13:17:25;13.50;58.30
2783;DHT22;1399;47.072;15.452;2023-12-14T13:19:51;13.60;58.10
2783;DHT22;1399;47.072;15.452;2023-12-14T13:22:18;13.60;58.10
2783;DHT22;1399;47.072;15.452;2023-12-14T13:24:45;13.60;57.80
2783;DHT22;1399;47.072;15.452;2023-12-14T13:27:10;13.60;57.70
2783;DHT22;1399;47.072;15.452;2023-12-14T13:29:36;13.60;57.60
2783;DHT22;1399;47.072;15.452;2023-12-14T13:32:02;13.60;57.50
2783;DHT22;1399;47.072;15.452;2023-12-14T13:34:28;13.60;57.40
2783;DHT22;1399;47.072;15.452;2023-12-14T13:36:54;13.60;57.30
2783;DHT22;1399;47.072;15.452;2023-12-14T13:39:20;13.60;57.20
2783;DHT22;1399;47.072;15.452;2023-12-14T13:41:46;13.60;57.10
2783;DHT22;1399;47.072;15.452;2023-12-14T13:44:12;13.60;57.00
2783;DHT22;1399;47.072;15.452;2023-12-14T13:46:38;13.60;57.00
2783;DHT22;1399;47.072;15.452;2023-12-14T13:49:04;13.60;56.90
2783;DHT22;1399;47.072;15.452;2023-12-14T13:51:29;13.60;56.80
2783;DHT22;1399;47.072;15.452;2023-12-14T13:53:55;13.60;56.70
2783;DHT22;1399;47.072;15.452;2023-12-14T13:56:21;13.60;56.60
2783;DHT22;1399;47.072;15.452;2023-12-14T13:58:47;13.60;56.60
2783;DHT22;1399;47.072;15.452;2023-12-14T14:01:12;13.60;56.50
2783;DHT22;1399;47.072;15.452;2023-12-14T14:03:41;13.60;56.50
2783;DHT22;1399;47.072;15.452;2023-12-14T14:06:07;13.60;56.40
2783;DHT22;1399;47.072;15.452;2023-12-14T14:08:33;13.60;56.20
2783;DHT22;1399;47.072;15.452;2023-12-14T14:10:59;13.60;56.10
2783;DHT22;1399;47.072;15.452;2023-12-14T14:13:25;13.70;56.10
2783;DHT22;1399;47.072;15.452;2023-12-14T14:15:51;13.60;56.00
2783;DHT22;1399;47.072;15.452;2023-12-14T14:18:17;13.60;56.00
2783;DHT22;1399;47.072;15.452;2023-12-14T14:20:43;13.60;56.00
2783;DHT22;1399;47.072;15.452;2023-12-14T14:23:09;13.60;55.90
2783;DHT22;1399;47.072;15.452;2023-12-14T14:25:34;13.60;55.80
2783;DHT22;1399;47.072;15.452;2023-12-14T14:28:00;13.60;55.80
2783;DHT22;1399;47.072;15.452;2023-12-14T14:30:26;13.60;55.90
2783;DHT22;1399;47.072;15.452;2023-12-14T14:32:52;13.50;55.90
2783;DHT22;1399;47.072;15.452;2023-12-14T14:35:18;13.50;56.00
2783;DHT22;1399;47.072;15.452;2023-12-14T14:37:44;13.50;56.20
2783;DHT22;1399;47.072;15.452;2023-12-14T14:40:13;13.50;56.30
2783;DHT22;1399;47.072;15.452;2023-12-14T14:42:40;13.50;56.50
2783;DHT22;1399;47.072;15.452;2023-12-14T14:45:07;13.50;56.60
2783;DHT22;1399;47.072;15.452;2023-12-14T14:47:34;13.50;56.80
2783;DHT22;1399;47.072;15.452;2023-12-14T14:50:01;13.50;56.90
2783;DHT22;1399;47.072;15.452;2023-12-14T14:52:30;13.50;57.10
2783;DHT22;1399;47.072;15.452;2023-12-14T14:54:55;13.40;57.20
2783;DHT22;1399;47.072;15.452;2023-12-14T14:57:21;13.40;57.30
2783;DHT22;1399;47.072;15.452;2023-12-14T14:59:47;13.40;57.50
2783;DHT22;1399;47.072;15.452;2023-12-14T15:02:13;13.40;57.70
2783;DHT22;1399;47.072;15.452;2023-12-14T15:04:38;13.40;57.90
2783;DHT22;1399;47.072;15.452;2023-12-14T15:07:04;13.40;58.10
2783;DHT22;1399;47.072;15.452;2023-12-14T15:09:30;13.30;58.20
2783;DHT22;1399;47.072;15.452;2023-12-14T15:11:56;13.30;58.40
2783;DHT22;1399;47.072;15.452;2023-12-14T15:14:21;13.30;58.60
2783;DHT22;1399;47.072;15.452;2023-12-14T15:16:47;13.30;58.70
2783;DHT22;1399;47.072;15.452;2023-12-14T15:19:13;13.30;58.90
2783;DHT22;1399;47.072;15.452;2023-12-14T15:21:39;13.20;59.60
2783;DHT22;1399;47.072;15.452;2023-12-14T15:24:05;13.20;59.10
2783;DHT22;1399;47.072;15.452;2023-12-14T15:26:31;13.20;59.20
2783;DHT22;1399;47.072;15.452;2023-12-14T15:28:58;13.20;59.40
2783;DHT22;1399;47.072;15.452;2023-12-14T15:31:24;13.20;59.60
2783;DHT22;1399;47.072;15.452;2023-12-14T15:33:50;13.20;59.70
2783;DHT22;1399;47.072;15.452;2023-12-14T15:36:16;13.20;59.80
2783;DHT22;1399;47.072;15.452;2023-12-14T15:38:42;13.20;59.90
2783;DHT22;1399;47.072;15.452;2023-12-14T15:41:12;13.20;60.00
2783;DHT22;1399;47.072;15.452;2023-12-14T15:43:38;13.10;60.10